Time;durP1;ratioP1;P1;durP2;ratioP2;P2;SDS_P1;SDS_P2;PMS_P1;PMS_P2;Temp;Humidity;BMP_temperature;BMP_pressure;BME280_temperature;BME280_humidity;BME280_pressure;Samples;Min_cycle;Max_cycle;Signal;HPM_P1;HPM_P2
2024/04/23 00:00:13;;;;;;;0.60;0.60;;;;;;;0.70;100.00;96938.81;29395;206;63005;-55
2024/04/23 00:00:46;;;;;;;0.60;0.60;;;;;;;0.70;100.00;96935.31;29395;231;63009;-56
2024/04/23 00:01:18;;;;;;;0.60;0.60;;;;;;;0.72;100.00;96938.59;29395;216;63005;-56
2024/04/23 00:01:49;;;;;;;0.60;0.60;;;;;;;0.71;100.00;96943.13;29395;247;63009;-57
2024/04/23 00:02:20;;;;;;;0.60;0.60;;;;;;;0.71;100.00;96931.63;29394;213;64009;-56
2024/04/23 00:02:51;;;;;;;0.60;0.60;;;;;;;0.70;100.00;96936.16;29395;230;63009;-56
2024/04/23 00:03:22;;;;;;;0.60;0.60;;;;;;;0.70;100.00;96935.31;29395;236;63004;-56
2024/04/23 00:03:54;;;;;;;0.60;0.60;;;;;;;0.71;100.00;96934.28;29394;216;64013;-56
2024/04/23 00:04:25;;;;;;;0.70;0.70;;;;;;;0.69;100.00;96934.53;29395;202;63004;-56
2024/04/23 00:04:56;;;;;;;0.70;0.70;;;;;;;0.69;100.00;96934.53;29395;212;63009;-56
2024/04/23 00:05:28;;;;;;;0.70;0.70;;;;;;;0.68;100.00;96927.56;29395;211;63009;-56
2024/04/23 00:05:59;;;;;;;0.70;0.70;;;;;;;0.68;100.00;96927.56;29395;234;63008;-56
2024/04/23 00:06:30;;;;;;;0.60;0.60;;;;;;;0.68;100.00;96932.09;29395;196;63004;-56
2024/04/23 00:07:02;;;;;;;0.60;0.60;;;;;;;0.65;100.00;96933.38;29373;202;63017;-56
2024/04/23 00:07:33;;;;;;;0.70;0.70;;;;;;;0.60;100.00;96923.38;29373;222;63005;-57
2024/04/23 00:08:05;;;;;;;0.60;0.60;;;;;;;0.60;100.00;96925.22;29371;238;64013;-56
2024/04/23 00:08:37;;;;;;;0.60;0.60;;;;;;;0.58;100.00;96928.13;29394;228;64005;-57
2024/04/23 00:09:09;;;;;;;0.60;0.60;;;;;;;0.57;100.00;96934.50;29394;199;64013;-56
2024/04/23 00:09:40;;;;;;;0.70;0.70;;;;;;;0.56;100.00;96930.22;29371;229;64009;-56
2024/04/23 00:10:11;;;;;;;0.70;0.70;;;;;;;0.55;100.00;96928.56;29373;243;63009;-56
2024/04/23 00:10:43;;;;;;;0.60;0.60;;;;;;;0.56;100.00;96926.72;29372;196;63004;-57
2024/04/23 00:11:14;;;;;;;0.70;0.70;;;;;;;0.57;100.00;96925.69;29373;298;63009;-57
2024/04/23 00:11:45;;;;;;;0.60;0.60;;;;;;;0.57;100.00;96925.69;29373;331;63004;-56
2024/04/23 00:12:16;;;;;;;0.70;0.70;;;;;;;0.55;100.00;96925.91;29373;284;63009;-56
2024/04/23 00:12:47;;;;;;;0.70;0.70;;;;;;;0.55;100.00;96928.56;29373;297;63004;-57
2024/04/23 00:13:18;;;;;;;1.12;1.12;;;;;;;0.54;100.00;96924.28;29373;250;63028;-56
2024/04/23 00:13:50;;;;;;;0.70;0.70;;;;;;;0.53;100.00;96921.84;29373;310;63005;-57
2024/04/23 00:14:21;;;;;;;0.70;0.70;;;;;;;0.54;100.00;96921.63;29373;237;63009;-56
2024/04/23 00:14:54;;;;;;;0.70;0.70;;;;;;;0.55;100.00;96917.91;29371;289;64009;-56
2024/04/23 00:15:25;;;;;;;0.70;0.70;;;;;;;0.54;100.00;96926.12;29395;197;63018;-56
2024/04/23 00:15:56;;;;;;;0.60;0.60;;;;;;;0.51;100.00;96926.59;29373;229;63005;-56
2024/04/23 00:16:28;;;;;;;0.70;0.70;;;;;;;0.48;100.00;96922.53;29373;227;63009;-56
2024/04/23 00:17:01;;;;;;;0.70;0.70;;;;;;;0.48;100.00;96932.38;29373;227;63005;-57
2024/04/23 00:17:32;;;;;;;0.60;0.60;;;;;;;0.47;100.00;96920.06;29373;280;63009;-57
2024/04/23 00:18:04;;;;;;;0.60;0.60;;;;;;;0.48;100.00;96922.53;29373;210;63004;-56
2024/04/23 00:18:35;;;;;;;0.70;0.70;;;;;;;0.48;100.00;96925.19;29373;261;63009;-57
2024/04/23 00:19:07;;;;;;;0.70;0.70;;;;;;;0.49;100.00;96921.47;29373;196;63004;-58
2024/04/23 00:19:38;;;;;;;0.70;0.70;;;;;;;0.49;100.00;96923.34;29373;362;63009;-58
2024/04/23 00:20:10;;;;;;;0.70;0.70;;;;;;;0.48;100.00;96921.72;29371;273;64008;-56
2024/04/23 00:20:41;;;;;;;0.70;0.70;;;;;;;0.47;100.00;96920.88;29373;202;63008;-56
2024/04/23 00:21:12;;;;;;;0.70;0.70;;;;;;;0.46;100.00;96919.25;29373;279;63005;-55
2024/04/23 00:21:43;;;;;;;0.70;0.70;;;;;;;0.47;100.00;96917.41;29373;203;63009;-56
2024/04/23 00:22:14;;;;;;;0.70;0.70;;;;;;;0.47;100.00;96920.88;29373;279;63007;-56
2024/04/23 00:22:45;;;;;;;0.60;0.60;;;;;;;0.49;100.00;96918.81;29373;220;63009;-56
2024/04/23 00:23:17;;;;;;;0.60;0.60;;;;;;;0.49;100.00;96924.16;29395;331;63005;-56
2024/04/23 00:23:48;;;;;;;0.70;0.70;;;;;;;0.49;100.00;96921.47;29373;337;63009;-56
2024/04/23 00:24:19;;;;;;;0.70;0.70;;;;;;;0.50;100.00;96923.09;29373;219;63005;-56
2024/04/23 00:24:51;;;;;;;0.60;0.60;;;;;;;0.49;100.00;96921.47;29395;223;63009;-56
2024/04/23 00:25:22;;;;;;;0.70;0.70;;;;;;;0.50;100.00;96917.75;29371;198;64009;-56
2024/04/23 00:25:53;;;;;;;0.60;0.60;;;;;;;0.49;100.00;96924.16;29395;204;63009;-57
2024/04/23 00:26:24;;;;;;;0.60;0.60;;;;;;;0.48;100.00;96919.84;29395;229;63004;-57
2024/04/23 00:26:59;;;;;;;0.70;0.70;;;;;;;0.46;100.00;96913.09;29395;275;63009;-58
2024/04/23 00:27:31;;;;;;;0.70;0.70;;;;;;;0.46;100.00;96916.59;29395;222;63004;-57
2024/04/23 00:28:03;;;;;;;0.70;0.70;;;;;;;0.45;100.00;96917.62;29395;231;63008;-57
2024/04/23 00:28:34;;;;;;;0.70;0.70;;;;;;;0.46;100.00;96913.09;29395;212;63005;-56
2024/04/23 00:29:05;;;;;;;0.60;0.60;;;;;;;0.45;100.00;96911.47;29395;237;63018;-60
2024/04/23 00:29:36;;;;;;;0.70;0.70;;;;;;;0.45;100.00;96922.16;29395;218;63005;-57
2024/04/23 00:30:08;;;;;;;0.62;0.62;;;;;;;0.44;100.00;96910.66;29395;211;63009;-57
2024/04/23 00:30:40;;;;;;;0.65;0.65;;;;;;;0.43;100.00;96911.72;29394;225;63997;-57
2024/04/23 00:31:11;;;;;;;0.60;0.60;;;;;;;0.41;100.00;96913.78;29373;205;63009;-57
2024/04/23 00:31:43;;;;;;;0.60;0.60;;;;;;;0.38;100.00;96916.91;29395;222;63005;-57
2024/04/23 00:32:14;;;;;;;0.70;0.70;;;;;;;0.36;100.00;96924.34;29395;196;63009;-57
2024/04/23 00:33:54;;;;;;;0.70;0.70;;;;;;;0.30;100.00;96918.06;88174;198;64004;-56
2024/04/23 00:34:25;;;;;;;0.70;0.70;;;;;;;0.32;100.00;96915.19;29394;354;64009;-56
2024/04/23 00:34:56;;;;;;;0.70;0.70;;;;;;;0.32;100.00;96915.19;29395;222;63005;-57
2024/04/23 00:35:28;;;;;;;0.70;0.70;;;;;;;0.32;100.00;96918.66;29395;234;63026;-58
2024/04/23 00:36:05;;;;;;;0.70;0.70;;;;;;;0.32;100.00;96917.84;29394;233;64009;-58
2024/04/23 00:36:36;;;;;;;0.70;0.70;;;;;;;0.29;100.00;96916.44;29395;202;63009;-57
2024/04/23 00:37:07;;;;;;;0.70;0.70;;;;;;;0.30;100.00;96920.75;29373;202;63004;-57
2024/04/23 00:37:39;;;;;;;0.70;0.70;;;;;;;0.31;100.00;96916.22;29373;226;63009;-57
2024/04/23 00:38:10;;;;;;;0.70;0.70;;;;;;;0.29;100.00;96916.44;29395;206;63004;-57
2024/04/23 00:38:41;;;;;;;0.70;0.70;;;;;;;0.29;100.00;96913.78;29395;237;63009;-56
2024/04/23 00:39:12;;;;;;;0.70;0.70;;;;;;;0.29;100.00;96907.63;29395;263;63004;-57
2024/04/23 00:39:43;;;;;;;0.70;0.70;;;;;;;0.29;100.00;96908.44;29395;212;63008;-58
2024/04/23 00:40:15;;;;;;;0.70;0.70;;;;;;;0.28;100.00;96908.66;29394;314;64009;-57
2024/04/23 00:40:46;;;;;;;0.70;0.70;;;;;;;0.26;100.00;96913.41;29394;206;64014;-57
2024/04/23 00:41:17;;;;;;;0.60;0.60;;;;;;;0.26;100.00;96914.22;29395;200;63005;-57
2024/04/23 00:41:49;;;;;;;0.70;0.70;;;;;;;0.27;100.00;96909.69;29395;238;63009;-57
2024/04/23 00:42:21;;;;;;;0.70;0.70;;;;;;;0.25;100.00;96906.44;29395;210;63005;-57
2024/04/23 00:42:53;;;;;;;0.60;0.60;;;;;;;0.25;100.00;96906.44;29395;248;63009;-56
2024/04/23 00:43:24;;;;;;;0.65;0.65;;;;;;;0.25;100.00;96907.25;29395;202;63005;-58
2024/04/23 00:43:58;;;;;;;0.60;0.60;;;;;;;0.28;100.00;96906.00;29395;233;63009;-57
2024/04/23 00:44:31;;;;;;;0.70;0.70;;;;;;;0.30;100.00;96909.25;29373;230;63004;-57
2024/04/23 00:45:04;;;;;;;0.70;0.70;;;;;;;0.31;100.00;96910.88;29373;269;63009;-57
2024/04/23 00:45:43;;;;;;;0.70;0.70;;;;;;;0.31;100.00;96900.22;29373;311;63014;-57
2024/04/23 00:46:16;;;;;;;0.70;0.70;;;;;;;0.32;100.00;96896.50;29371;245;64013;-57
2024/04/23 00:46:49;;;;;;;0.70;0.70;;;;;;;0.33;100.00;96906.13;29373;273;63004;-57
2024/04/23 00:47:21;;;;;;;0.70;0.70;;;;;;;0.34;100.00;96899.75;29373;236;63008;-56
2024/04/23 00:47:53;;;;;;;0.70;0.70;;;;;;;0.33;100.00;96898.94;29373;331;63005;-57
2024/04/23 00:48:25;;;;;;;0.60;0.60;;;;;;;0.34;100.00;96905.09;29373;238;63009;-56
2024/04/23 00:48:56;;;;;;;0.70;0.70;;;;;;;0.34;100.00;96905.09;29373;292;63005;-58
2024/04/23 00:49:28;;;;;;;0.70;0.70;;;;;;;0.33;100.00;96898.13;29373;284;63009;-57
2024/04/23 00:50:01;;;;;;;0.70;0.70;;;;;;;0.30;100.00;96904.72;29373;273;63005;-57
2024/04/23 00:50:32;;;;;;;0.70;0.70;;;;;;;0.26;100.00;96897.41;29373;283;63009;-56
2024/04/23 00:51:04;;;;;;;0.70;0.70;;;;;;;0.23;100.00;96895.19;29373;223;63005;-57
2024/04/23 00:51:36;;;;;;;0.70;0.70;;;;;;;0.22;100.00;96896.22;29371;250;64009;-57
2024/04/23 00:52:07;;;;;;;0.70;0.70;;;;;;;0.22;100.00;96896.22;29373;250;63004;-57
2024/04/23 00:52:38;;;;;;;0.60;0.60;;;;;;;0.21;100.00;96894.59;29373;282;63009;-56
2024/04/23 00:53:11;;;;;;;0.70;0.70;;;;;;;0.20;100.00;96892.97;29373;308;63004;-57
2024/04/23 00:53:42;;;;;;;0.70;0.70;;;;;;;0.20;100.00;96887.62;29371;202;64013;-68
2024/04/23 00:54:15;;;;;;;0.70;0.70;;;;;;;0.23;100.00;96892.50;29373;208;63004;-56
2024/04/23 00:54:49;;;;;;;0.90;0.90;;;;;;;0.25;100.00;96895.78;29373;203;63008;-57
2024/04/23 00:55:22;;;;;;;0.70;0.70;;;;;;;0.26;100.00;96892.06;29373;216;63005;-56
2024/04/23 00:55:53;;;;;;;0.60;0.60;;;;;;;0.28;100.00;96890.78;29373;247;63009;-56
2024/04/23 00:56:25;;;;;;;0.70;0.70;;;;;;;0.30;100.00;96888.72;29373;342;63005;-57
2024/04/23 00:56:59;;;;;;;0.70;0.70;;;;;;;0.32;100.00;96888.50;29371;211;64013;-57
2024/04/23 00:57:30;;;;;;;0.60;0.60;;;;;;;0.33;100.00;96888.25;29373;199;63005;-57
2024/04/23 00:58:04;;;;;;;0.70;0.70;;;;;;;0.34;100.00;96883.75;29373;238;63009;-57
2024/04/23 00:58:37;;;;;;;0.70;0.70;;;;;;;0.35;100.00;96882.66;29395;220;63008;-56
2024/04/23 00:59:13;;;;;;;0.70;0.70;;;;;;;0.35;100.00;96888.00;29373;233;63009;-57
2024/04/23 00:59:45;;;;;;;0.70;0.70;;;;;;;0.35;100.00;96880.00;29371;224;64009;-57
2024/04/23 01:00:17;;;;;;;0.70;0.70;;;;;;;0.34;100.00;96875.72;29373;241;63009;-56
2024/04/23 01:00:49;;;;;;;0.60;0.60;;;;;;;0.31;100.00;96879.66;29373;204;63004;-57
2024/04/23 01:01:21;;;;;;;0.70;0.70;;;;;;;0.30;100.00;96882.56;29373;274;63026;-56
2024/04/23 01:01:55;;;;;;;0.68;0.68;;;;;;;0.29;100.00;96880.94;29373;295;63008;-57
2024/04/23 01:02:26;;;;;;;0.60;0.60;;;;;;;0.29;100.00;96883.59;29373;257;63008;-57
2024/04/23 01:03:01;;;;;;;0.65;0.65;;;;;;;0.28;100.00;96879.31;29373;218;63005;-57
2024/04/23 01:03:32;;;;;;;0.70;0.70;;;;;;;0.29;100.00;96880.94;29395;208;63009;-57
2024/04/23 01:04:05;;;;;;;0.70;0.70;;;;;;;0.29;100.00;96886.28;29395;234;63005;-57
2024/04/23 01:04:37;;;;;;;0.70;0.70;;;;;;;0.30;100.00;96882.56;29394;227;64013;-57
2024/04/23 01:05:08;;;;;;;0.70;0.70;;;;;;;0.31;100.00;96884.19;29395;252;63010;-57
2024/04/23 01:05:39;;;;;;;0.70;0.70;;;;;;;0.32;100.00;96883.16;29395;250;63020;-57
2024/04/23 01:06:11;;;;;;;0.62;0.62;;;;;;;0.32;100.00;96880.47;29395;213;63005;-57
2024/04/23 01:06:42;;;;;;;0.70;0.70;;;;;;;0.32;100.00;96885.81;29395;205;63009;-57
2024/04/23 01:07:13;;;;;;;0.70;0.70;;;;;;;0.33;100.00;96882.09;29395;198;63004;-57
2024/04/23 01:07:45;;;;;;;0.60;0.60;;;;;;;0.33;100.00;96885.59;29395;276;63016;-57
2024/04/23 01:08:16;;;;;;;0.85;0.85;;;;;;;0.36;100.00;96878.94;29395;228;63010;-56
2024/04/23 01:08:47;;;;;;;0.60;0.60;;;;;;;0.37;100.00;96880.59;29395;204;63027;-57
2024/04/23 01:09:20;;;;;;;0.68;0.68;;;;;;;0.37;100.00;96877.09;29395;242;63008;-56
2024/04/23 01:09:51;;;;;;;0.70;0.70;;;;;;;0.38;100.00;96876.87;29394;208;64013;-56
2024/04/23 01:10:23;;;;;;;0.70;0.70;;;;;;;0.38;100.00;96879.53;29373;250;63005;-57
2024/04/23 01:10:54;;;;;;;0.70;0.70;;;;;;;0.40;100.00;96880.12;29371;326;64014;-57
2024/04/23 01:11:25;;;;;;;0.70;0.70;;;;;;;0.41;100.00;96873.75;29373;237;63005;-57
2024/04/23 01:11:57;;;;;;;0.70;0.70;;;;;;;0.43;100.00;96876.19;29373;216;63009;-57
2024/04/23 01:12:28;;;;;;;0.70;0.70;;;;;;;0.43;100.00;96877.00;29371;264;64009;-57
2024/04/23 01:12:59;;;;;;;0.60;0.60;;;;;;;0.47;100.00;96872.03;29373;277;63009;-57
2024/04/23 01:13:30;;;;;;;0.65;0.65;;;;;;;0.50;100.00;96876.91;29395;269;63004;-57
2024/04/23 01:14:03;;;;;;;0.70;0.70;;;;;;;0.49;100.00;96875.28;29395;209;63009;-56
2024/04/23 01:14:38;;;;;;;0.60;0.60;;;;;;;0.49;100.00;96877.94;29373;218;63004;-56
2024/04/23 01:15:12;;;;;;;0.70;0.70;;;;;;;0.49;100.00;96875.28;29373;215;63009;-56
2024/04/23 01:15:45;;;;;;;0.62;0.62;;;;;;;0.52;100.00;96875.63;29373;206;63004;-57
2024/04/23 01:16:18;;;;;;;0.70;0.70;;;;;;;0.53;100.00;96871.13;29373;321;63008;-56
2024/04/23 01:16:50;;;;;;;0.70;0.70;;;;;;;0.55;100.00;96880.53;29373;218;63004;-57
2024/04/23 01:17:23;;;;;;;0.70;0.70;;;;;;;0.57;100.00;96878.44;29373;206;63008;-57
2024/04/23 01:17:59;;;;;;;0.70;0.70;;;;;;;0.59;100.00;96880.88;29394;309;63999;-56
2024/04/23 01:18:32;;;;;;;0.70;0.70;;;;;;;0.56;100.00;96876.81;29371;248;64013;-56
2024/04/23 01:19:06;;;;;;;0.70;0.70;;;;;;;0.54;100.00;96878.91;29373;243;63005;-57
2024/04/23 01:19:45;;;;;;;0.70;0.70;;;;;;;0.54;100.00;96878.91;29373;232;63009;-57
2024/04/23 01:20:19;;;;;;;0.65;0.65;;;;;;;0.57;100.00;96877.63;29373;266;63005;-57
2024/04/23 01:20:58;;;;;;;0.68;0.68;;;;;;;0.59;100.00;96878.22;29373;207;63009;-56
2024/04/23 01:22:18;;;;;;;0.70;0.70;;;;;;;0.61;100.00;96874.28;29373;199;63004;-57
2024/04/23 01:23:10;;;;;;;0.70;0.70;;;;;;;0.62;100.00;96881.22;29371;289;64013;-57
2024/04/23 01:23:57;;;;;;;0.70;0.70;;;;;;;0.63;100.00;96882.88;29395;304;63004;-57
2024/04/23 01:24:49;;;;;;;0.60;0.60;;;;;;;0.62;100.00;96881.22;29394;202;64014;-57
2024/04/23 01:25:22;;;;;;;;;;;;;;;0.60;100.00;96880.66;29974;982;28000;-57
2024/04/23 01:25:58;;;;;;;0.70;0.70;;;;;;;0.55;100.00;96888.53;29400;243;63005;-58
2024/04/23 01:26:29;;;;;;;0.70;0.70;;;;;;;0.52;100.00;96874.81;29373;294;63016;-57
2024/04/23 01:27:02;;;;;;;0.70;0.70;;;;;;;0.47;100.00;96877.38;29373;247;63005;-56
2024/04/23 01:27:35;;;;;;;0.88;0.88;;;;;;;0.42;100.00;96878.03;29373;315;63009;-56
2024/04/23 01:28:07;;;;;;;0.70;0.70;;;;;;;0.39;100.00;96875.84;29371;295;64009;-57
2024/04/23 01:28:40;;;;;;;0.70;0.70;;;;;;;0.38;100.00;96884.06;29373;208;63009;-56
2024/04/23 01:29:12;;;;;;;0.60;0.60;;;;;;;0.36;100.00;96881.63;29373;337;63004;-56
2024/04/23 01:29:45;;;;;;;0.60;0.60;;;;;;;0.33;100.00;96882.94;29373;239;63024;-56
2024/04/23 01:30:18;;;;;;;0.70;0.70;;;;;;;0.29;100.00;96879.06;29373;299;63004;-56
2024/04/23 01:30:50;;;;;;;0.68;0.68;;;;;;;0.31;100.00;96884.19;29373;209;63009;-56
2024/04/23 01:31:24;;;;;;;0.60;0.60;;;;;;;0.29;100.00;96880.94;29373;208;63011;-57
2024/04/23 01:31:58;;;;;;;0.60;0.60;;;;;;;0.25;100.00;96874.41;29372;206;63009;-57
2024/04/23 01:32:32;;;;;;;0.70;0.70;;;;;;;0.20;100.00;96879.62;29373;257;63005;-57
2024/04/23 01:33:05;;;;;;;0.70;0.70;;;;;;;0.17;100.00;96877.41;29373;245;63026;-57
2024/04/23 01:33:39;;;;;;;0.70;0.70;;;;;;;0.12;100.00;96882.59;29371;213;64009;-56
2024/04/23 01:34:11;;;;;;;0.70;0.70;;;;;;;0.10;100.00;96871.34;29373;349;63009;-56
2024/04/23 01:34:46;;;;;;;1.17;1.17;;;;;;;0.10;100.00;96876.69;29373;231;63005;-56
2024/04/23 01:35:19;;;;;;;0.70;0.70;;;;;;;0.10;100.00;96882.00;29373;302;63009;-56
2024/04/23 01:35:51;;;;;;;0.70;0.70;;;;;;;0.08;100.00;96878.75;29373;321;63015;-56
2024/04/23 01:36:23;;;;;;;0.70;0.70;;;;;;;0.08;100.00;96884.09;29373;267;63009;-56
2024/04/23 01:36:55;;;;;;;0.70;0.70;;;;;;;0.08;100.00;96874.25;29373;275;63004;-56
2024/04/23 01:37:28;;;;;;;0.60;0.60;;;;;;;0.09;100.00;96880.38;29373;265;63024;-57
2024/04/23 01:38:01;;;;;;;0.70;0.70;;;;;;;0.11;100.00;96880.97;29373;302;63004;-66
2024/04/23 01:38:34;;;;;;;0.60;0.60;;;;;;;0.11;100.00;96880.97;29373;279;63009;-57
2024/04/23 01:39:06;;;;;;;0.70;0.70;;;;;;;0.10;100.00;96879.34;29371;280;64008;-67
2024/04/23 01:39:39;;;;;;;0.70;0.70;;;;;;;0.08;100.00;96878.75;29373;216;63009;-57
2024/04/23 01:40:14;;;;;;;0.70;0.70;;;;;;;0.06;100.00;96880.84;29373;278;63005;-58
2024/04/23 01:40:45;;;;;;;0.70;0.70;;;;;;;0.05;100.00;96880.03;29373;215;63024;-57
2024/04/23 01:41:17;;;;;;;0.70;0.70;;;;;;;0.06;100.00;96875.50;29373;333;63008;-57
2024/04/23 01:41:49;;;;;;;0.60;0.60;;;;;;;0.05;100.00;96876.53;29373;318;63009;-57
2024/04/23 01:42:22;;;;;;;0.70;0.70;;;;;;;0.02;100.00;96875.13;29373;232;63007;-57
2024/04/23 01:43:00;;;;;;;0.70;0.70;;;;;;;0.00;100.00;96871.91;29373;338;63009;-57
2024/04/23 01:43:31;;;;;;;0.70;0.70;;;;;;;-0.02;100.00;96880.12;29373;255;63005;-57
2024/04/23 01:44:04;;;;;;;0.70;0.70;;;;;;;-0.02;100.00;96874.00;29373;243;63009;-56
2024/04/23 01:44:36;;;;;;;0.70;0.70;;;;;;;-0.03;100.00;96888.38;29371;202;64003;-56
2024/04/23 01:45:11;;;;;;;0.70;0.70;;;;;;;-0.04;100.00;96871.53;29373;355;63009;-56
2024/04/23 01:45:43;;;;;;;0.70;0.70;;;;;;;-0.03;100.00;96878.50;29373;202;63004;-65
2024/04/23 01:46:15;;;;;;;0.60;0.60;;;;;;;-0.03;100.00;96873.19;29373;281;63008;-56
2024/04/23 01:46:47;;;;;;;0.70;0.70;;;;;;;-0.02;100.00;96877.47;29373;249;63004;-57
2024/04/23 01:47:18;;;;;;;0.60;0.60;;;;;;;-0.03;100.00;96880.38;29373;352;63009;-57
2024/04/23 01:47:53;;;;;;;0.70;0.70;;;;;;;-0.06;100.00;96884.28;29373;285;63005;-57
2024/04/23 01:48:28;;;;;;;0.70;0.70;;;;;;;-0.04;100.00;96881.41;29373;341;63009;-57
2024/04/23 01:48:59;;;;;;;0.70;0.70;;;;;;;-0.06;100.00;96884.28;29373;289;63005;-58
2024/04/23 01:49:31;;;;;;;0.70;0.70;;;;;;;-0.05;100.00;96885.09;29373;323;63027;-56
2024/04/23 01:50:06;;;;;;;0.70;0.70;;;;;;;-0.05;100.00;96875.25;29371;215;64009;-56
2024/04/23 01:50:37;;;;;;;0.70;0.70;;;;;;;-0.04;100.00;96876.87;29373;252;63009;-56
2024/04/23 01:51:09;;;;;;;0.70;0.70;;;;;;;-0.04;100.00;96876.87;29373;198;63005;-56
2024/04/23 01:51:40;;;;;;;0.60;0.60;;;;;;;-0.06;100.00;96884.28;29373;222;63009;-56
2024/04/23 01:52:12;;;;;;;0.70;0.70;;;;;;;-0.09;100.00;96884.75;29373;197;63004;-55
2024/04/23 01:52:43;;;;;;;1.12;1.12;;;;;;;-0.11;100.00;96875.34;29373;325;63009;-55
2024/04/23 01:53:15;;;;;;;0.70;0.70;;;;;;;-0.12;100.00;96879.03;29372;268;63004;-56
2024/04/23 01:53:46;;;;;;;0.70;0.70;;;;;;;-0.10;100.00;96882.31;29373;314;63008;-57
2024/04/23 01:54:18;;;;;;;0.70;0.70;;;;;;;-0.08;100.00;96882.88;29373;360;63004;-57
2024/04/23 01:54:50;;;;;;;0.70;0.70;;;;;;;-0.08;100.00;96875.69;29373;244;63026;-57
2024/04/23 01:55:25;;;;;;;0.60;0.60;;;;;;;-0.06;100.00;96886.16;29371;231;63999;-56
2024/04/23 01:55:57;;;;;;;0.70;0.70;;;;;;;-0.05;100.00;96877.91;29395;309;63009;-56
2024/04/23 01:56:28;;;;;;;0.70;0.70;;;;;;;-0.05;100.00;96875.25;29373;379;63005;-57
2024/04/23 01:57:04;;;;;;;0.70;0.70;;;;;;;-0.08;100.00;96881.03;29373;331;63009;-57
2024/04/23 01:57:36;;;;;;;0.70;0.70;;;;;;;-0.13;100.00;96877.41;29373;263;63005;-56
2024/04/23 01:58:08;;;;;;;0.70;0.70;;;;;;;-0.15;100.00;96885.63;29373;309;63009;-56
2024/04/23 01:58:39;;;;;;;0.60;0.60;;;;;;;-0.15;100.00;96874.97;29373;326;63005;-56
2024/04/23 01:59:12;;;;;;;0.70;0.70;;;;;;;-0.15;100.00;96880.31;29373;230;63009;-55
2024/04/23 02:00:07;;;;;;;0.70;0.70;;;;;;;-0.13;100.00;96875.56;29373;257;63004;-56
2024/04/23 02:00:39;;;;;;;6.05;5.68;;;;;;;-0.10;100.00;96877.78;29371;198;64013;-55
2024/04/23 02:01:10;;;;;;;0.70;0.70;;;;;;;-0.12;100.00;96876.37;29372;198;64004;-56
2024/04/23 02:01:47;;;;;;;0.80;0.80;;;;;;;-0.16;100.00;96876.00;29373;328;63008;-55
2024/04/23 02:02:20;;;;;;;0.70;0.70;;;;;;;-0.18;100.00;96874.59;29373;209;63005;-55
2024/04/23 02:02:53;;;;;;;0.70;0.70;;;;;;;-0.17;100.00;96879.72;29373;304;63017;-56
2024/04/23 02:03:26;;;;;;;0.70;0.70;;;;;;;-0.17;100.00;96877.03;29373;312;63015;-57
2024/04/23 02:03:58;;;;;;;0.70;0.70;;;;;;;-0.16;100.00;96873.34;29373;209;63009;-57
2024/04/23 02:04:30;;;;;;;0.60;0.60;;;;;;;-0.15;100.00;96874.16;29373;202;63005;-57
2024/04/23 02:05:03;;;;;;;0.70;0.70;;;;;;;-0.15;100.00;96869.63;29373;208;63009;-56
2024/04/23 02:05:35;;;;;;;0.60;0.60;;;;;;;-0.16;100.00;96873.34;29373;291;63016;-55
2024/04/23 02:06:07;;;;;;;0.70;0.70;;;;;;;-0.15;100.00;96872.31;29371;283;64013;-56
2024/04/23 02:06:42;;;;;;;0.70;0.70;;;;;;;-0.16;100.00;96873.34;29373;213;63004;-57
2024/04/23 02:07:16;;;;;;;0.70;0.70;;;;;;;-0.15;100.00;96882.16;29373;202;63009;-57
2024/04/23 02:07:48;;;;;;;0.70;0.70;;;;;;;-0.16;100.00;96878.69;29373;266;63004;-57
2024/04/23 02:08:20;;;;;;;0.60;0.60;;;;;;;-0.16;100.00;96876.00;29371;208;64013;-57
2024/04/23 02:08:52;;;;;;;0.70;0.70;;;;;;;-0.15;100.00;96874.16;29373;307;63004;-57
2024/04/23 02:09:24;;;;;;;0.68;0.68;;;;;;;-0.15;100.00;96877.63;29373;251;63008;-57
2024/04/23 02:09:56;;;;;;;0.70;0.70;;;;;;;-0.14;100.00;96873.94;29371;213;64009;-58
2024/04/23 02:10:28;;;;;;;0.70;0.70;;;;;;;-0.15;100.00;96874.16;29373;306;63009;-57
2024/04/23 02:10:59;;;;;;;1.08;1.08;;;;;;;-0.15;100.00;96874.97;29373;244;63005;-57
2024/04/23 02:11:30;;;;;;;0.70;0.70;;;;;;;-0.16;100.00;96878.69;29373;324;63009;-56
2024/04/23 02:12:03;;;;;;;0.70;0.70;;;;;;;-0.15;100.00;96882.97;29373;285;63005;-57
2024/04/23 02:12:40;;;;;;;0.70;0.70;;;;;;;-0.14;100.00;96875.78;29373;284;63009;-58
2024/04/23 02:13:12;;;;;;;0.70;0.70;;;;;;;-0.16;100.00;96877.88;29373;240;63018;-57
2024/04/23 02:13:44;;;;;;;0.70;0.70;;;;;;;-0.19;100.00;96879.12;29371;196;64013;-57
2024/04/23 02:14:15;;;;;;;0.70;0.70;;;;;;;-0.20;100.00;96877.50;29373;320;63004;-57
2024/04/23 02:14:46;;;;;;;0.70;0.70;;;;;;;-0.19;100.00;96879.12;29373;281;63009;-58
2024/04/23 02:15:18;;;;;;;0.60;0.60;;;;;;;-0.19;100.00;96879.12;29371;278;64009;-57
2024/04/23 02:15:50;;;;;;;0.70;0.70;;;;;;;-0.19;100.00;96873.78;29373;199;63023;-55
2024/04/23 02:16:21;;;;;;;0.70;0.70;;;;;;;-0.19;100.00;96873.78;29373;265;63008;-56
2024/04/23 02:16:52;;;;;;;0.70;0.70;;;;;;;-0.18;100.00;96871.94;29371;197;64013;-57
2024/04/23 02:17:24;;;;;;;0.68;0.68;;;;;;;-0.18;100.00;96879.94;29373;198;63005;-58
2024/04/23 02:17:55;;;;;;;0.70;0.70;;;;;;;-0.18;100.00;96879.94;29373;270;63005;-57
2024/04/23 02:18:26;;;;;;;1.20;1.20;;;;;;;-0.18;100.00;96874.59;29373;203;63005;-57
2024/04/23 02:18:57;;;;;;;1.12;1.12;;;;;;;-0.18;100.00;96874.59;29373;239;63009;-57
2024/04/23 02:19:29;;;;;;;0.70;0.70;;;;;;;-0.18;100.00;96877.28;29373;305;63017;-57
2024/04/23 02:20:04;;;;;;;0.60;0.60;;;;;;;-0.21;100.00;96875.87;29373;241;63009;-58
2024/04/23 02:20:36;;;;;;;0.70;0.70;;;;;;;-0.25;100.00;96869.34;29371;224;64009;-58
2024/04/23 02:21:08;;;;;;;0.70;0.70;;;;;;;-0.26;100.00;96874.91;29373;268;63009;-57
2024/04/23 02:21:39;;;;;;;0.70;0.70;;;;;;;-0.28;100.00;96880.47;29372;196;64004;-57
2024/04/23 02:22:12;;;;;;;0.70;0.70;;;;;;;-0.27;100.00;96876.75;29373;236;63009;-56
2024/04/23 02:22:43;;;;;;;0.70;0.70;;;;;;;-0.28;100.00;96875.13;29373;216;63004;-56
2024/04/23 02:23:14;;;;;;;0.70;0.70;;;;;;;-0.27;100.00;96874.09;29371;312;64013;-57
2024/04/23 02:23:45;;;;;;;0.70;0.70;;;;;;;-0.27;100.00;96874.09;29373;232;63004;-56
2024/04/23 02:24:17;;;;;;;0.70;0.70;;;;;;;-0.29;100.00;96872.69;29371;224;64013;-56
2024/04/23 02:24:48;;;;;;;0.70;0.70;;;;;;;-0.31;100.00;96870.25;29373;276;63005;-56
2024/04/23 02:25:20;;;;;;;0.70;0.70;;;;;;;-0.31;100.00;96872.09;29373;289;63009;-56
2024/04/23 02:25:55;;;;;;;0.70;0.70;;;;;;;-0.30;100.00;96877.19;29373;206;63005;-56
2024/04/23 02:26:27;;;;;;;0.70;0.70;;;;;;;-0.28;100.00;96872.47;29373;204;63009;-56
2024/04/23 02:26:58;;;;;;;0.70;0.70;;;;;;;-0.29;100.00;96872.69;29373;308;63005;-56
2024/04/23 02:27:29;;;;;;;0.60;0.60;;;;;;;-0.32;100.00;96876.63;29373;196;63009;-57
2024/04/23 02:28:00;;;;;;;0.65;0.65;;;;;;;-0.33;100.00;96877.66;29373;202;63005;-55
2024/04/23 02:28:31;;;;;;;0.68;0.68;;;;;;;-0.34;100.00;96874.16;29373;215;63009;-57
2024/04/23 02:29:03;;;;;;;0.70;0.70;;;;;;;-0.31;100.00;96872.91;29373;198;63004;-56
2024/04/23 02:29:34;;;;;;;0.70;0.70;;;;;;;-0.31;100.00;96870.25;29371;256;64013;-57
2024/04/23 02:30:06;;;;;;;0.70;0.70;;;;;;;-0.33;100.00;96872.31;29373;253;63004;-56
2024/04/23 02:30:38;;;;;;;0.70;0.70;;;;;;;-0.37;100.00;96866.66;29373;216;63020;-57
2024/04/23 02:31:09;;;;;;;0.70;0.70;;;;;;;-0.36;100.00;96872.78;29373;300;63004;-57
2024/04/23 02:31:40;;;;;;;0.70;0.70;;;;;;;-0.36;100.00;96872.78;29373;348;63009;-57
2024/04/23 02:32:11;;;;;;;0.70;0.70;;;;;;;-0.34;100.00;96870.69;29373;230;63005;-56
2024/04/23 02:32:42;;;;;;;0.70;0.70;;;;;;;-0.33;100.00;96869.66;29373;287;63009;-56
2024/04/23 02:33:13;;;;;;;0.70;0.70;;;;;;;-0.32;100.00;96873.12;29371;245;64009;-57
2024/04/23 02:33:45;;;;;;;0.70;0.70;;;;;;;-0.31;100.00;96874.75;29373;272;63009;-56
2024/04/23 02:34:16;;;;;;;0.70;0.70;;;;;;;-0.32;100.00;96873.94;29395;214;63005;-56
2024/04/23 02:34:47;;;;;;;0.70;0.70;;;;;;;-0.31;100.00;96875.56;29371;310;64013;-56
2024/04/23 02:35:19;;;;;;;0.70;0.70;;;;;;;-0.30;100.00;96877.19;29373;266;63004;-57
2024/04/23 02:35:50;;;;;;;0.70;0.70;;;;;;;-0.31;100.00;96875.56;29373;219;63009;-57